createdAt,value
2023-03-03T00:03:45.355Z,100264.00
2023-03-03T00:08:47.465Z,100252.41
2023-03-03T00:13:51.979Z,100266.47
2023-03-03T00:18:54.638Z,100282.13
2023-03-03T00:24:23.789Z,100261.88
2023-03-03T00:29:31.734Z,100271.09
2023-03-03T00:34:34.236Z,100264.78
2023-03-03T00:39:37.984Z,100262.50
2023-03-03T00:44:46.787Z,100266.56
2023-03-03T00:49:48.564Z,100269.50
2023-03-03T00:54:50.212Z,100266.63
2023-03-03T00:59:51.832Z,100267.41
2023-03-03T01:04:56.490Z,100281.59
2023-03-03T01:09:58.156Z,100273.16
2023-03-03T01:14:59.876Z,100277.97
2023-03-03T01:20:02.758Z,100280.00
2023-03-03T01:25:04.854Z,100281.97
2023-03-03T01:30:08.080Z,100289.25
2023-03-03T01:35:09.844Z,100280.94
2023-03-03T01:40:21.407Z,100281.59
2023-03-03T01:45:27.344Z,100278.19
2023-03-03T01:50:38.618Z,100284.53
2023-03-03T01:55:42.068Z,100279.34
2023-03-03T02:00:50.607Z,100263.53
2023-03-03T02:05:55.552Z,100260.44
2023-03-03T02:10:57.938Z,100254.13
2023-03-03T02:16:00.984Z,100253.25
2023-03-03T02:21:10.034Z,100249.41
2023-03-03T02:26:22.776Z,100253.53
2023-03-03T02:31:30.565Z,100261.59
2023-03-03T02:36:35.970Z,100264.78
2023-03-03T02:42:16.567Z,100260.94
2023-03-03T02:47:24.033Z,100262.00
2023-03-03T02:52:25.757Z,100262.06
2023-03-03T02:57:27.480Z,100273.63
2023-03-03T03:02:29.405Z,100259.72
2023-03-03T03:07:31.189Z,100271.59
2023-03-03T03:12:32.956Z,100283.88
2023-03-03T03:17:38.555Z,100295.63
2023-03-03T03:22:41.549Z,100282.91
2023-03-03T03:27:43.973Z,100284.06
2023-03-03T03:32:45.949Z,100286.19
2023-03-03T03:37:47.711Z,100292.06
2023-03-03T03:42:49.419Z,100285.34
2023-03-03T03:47:51.205Z,100278.25
2023-03-03T03:52:53.303Z,100266.69
2023-03-03T03:57:56.804Z,100268.25
2023-03-03T04:02:58.970Z,100278.78
2023-03-03T04:08:01.134Z,100301.31
2023-03-03T04:13:02.984Z,100289.59
2023-03-03T04:18:05.114Z,100298.47
2023-03-03T04:23:07.888Z,100318.72
2023-03-03T04:28:10.759Z,100301.19
2023-03-03T04:33:13.725Z,100310.59
2023-03-03T04:38:16.318Z,100316.28
2023-03-03T04:43:19.455Z,100321.66
2023-03-03T04:48:21.859Z,100313.56
2023-03-03T04:53:24.178Z,100330.72
2023-03-03T04:58:26.728Z,100329.91
2023-03-03T05:03:30.350Z,100331.66
2023-03-03T05:08:32.138Z,100327.81
2023-03-03T05:13:33.755Z,100331.34
2023-03-03T05:18:35.485Z,100331.25
2023-03-03T05:23:37.086Z,100333.53
2023-03-03T05:28:38.789Z,100326.56
2023-03-03T05:33:40.394Z,100319.28
2023-03-03T05:38:42.007Z,100329.78
2023-03-03T05:43:43.782Z,100308.72
2023-03-03T05:48:45.818Z,100321.47
2023-03-03T05:53:47.568Z,100332.03
2023-03-03T05:58:49.192Z,100322.69
2023-03-03T06:03:50.818Z,100329.03
2023-03-03T06:08:55.540Z,100327.78
2023-03-03T06:13:59.177Z,100330.34
2023-03-03T06:19:01.482Z,100324.75
2023-03-03T06:24:03.108Z,100327.22
2023-03-03T06:29:04.803Z,100317.06
2023-03-03T06:34:06.462Z,100321.47
2023-03-03T06:39:08.109Z,100330.78
2023-03-03T06:44:11.900Z,100343.59
2023-03-03T06:49:13.524Z,100354.59
2023-03-03T06:54:20.465Z,100357.34
2023-03-03T06:59:22.411Z,100355.44
2023-03-03T07:04:33.755Z,100360.94
2023-03-03T07:09:35.475Z,100369.38
2023-03-03T07:14:51.640Z,100389.50
2023-03-03T07:19:53.928Z,100378.06
2023-03-03T07:25:01.919Z,100369.31
2023-03-03T07:30:24.174Z,100378.19
2023-03-03T07:35:43.224Z,100381.19
2023-03-03T07:40:51.421Z,100396.72
2023-03-03T07:46:02.741Z,100402.22
2023-03-03T07:51:15.282Z,100405.81
2023-03-03T07:56:30.346Z,100412.59
2023-03-03T08:01:41.414Z,100410.72
2023-03-03T08:06:50.584Z,100391.81
2023-03-03T08:11:57.819Z,100402.03
2023-03-03T08:17:01.679Z,100397.97
2023-03-03T08:22:15.035Z,100406.38
2023-03-03T08:27:16.646Z,100410.56
2023-03-03T08:32:18.622Z,100405.28
2023-03-03T08:37:20.317Z,100412.44
2023-03-03T08:42:21.921Z,100394.28
2023-03-03T08:47:23.552Z,100403.25
2023-03-03T08:52:25.269Z,100415.47
2023-03-03T08:57:26.929Z,100426.91
2023-03-03T09:02:28.683Z,100422.34
2023-03-03T09:07:30.403Z,100422.47
2023-03-03T09:12:40.889Z,100426.06
2023-03-03T09:17:44.514Z,100420.00
2023-03-03T09:22:46.199Z,100429.56
2023-03-03T09:27:48.078Z,100438.34
2023-03-03T09:32:49.920Z,100438.72
2023-03-03T09:37:51.806Z,100446.09
2023-03-03T09:43:18.322Z,100448.38
2023-03-03T09:48:47.870Z,100456.00
2023-03-03T09:53:52.385Z,100465.13
2023-03-03T09:59:19.991Z,100472.47
2023-03-03T10:04:52.335Z,100475.47
2023-03-03T10:09:59.681Z,100474.00
2023-03-03T10:15:01.238Z,100459.31
2023-03-03T10:20:21.780Z,100463.16
2023-03-03T10:25:31.737Z,100476.72
2023-03-03T10:30:42.709Z,100489.00
2023-03-03T10:36:11.975Z,100483.50
2023-03-03T10:41:51.149Z,100473.88
2023-03-03T10:47:10.023Z,100473.94
2023-03-03T10:52:30.482Z,100468.97
2023-03-03T10:57:46.932Z,100480.31
2023-03-03T11:03:12.066Z,100472.38
2023-03-03T11:08:16.598Z,100470.31
2023-03-03T11:13:41.011Z,100475.84
2023-03-03T11:19:05.771Z,100471.94
2023-03-03T11:24:39.340Z,100468.41
2023-03-03T11:30:01.250Z,100461.69
2023-03-03T11:35:08.983Z,100459.63
2023-03-03T11:40:20.991Z,100458.66
2023-03-03T11:45:32.406Z,100451.72
2023-03-03T11:51:06.328Z,100457.56
2023-03-03T11:56:22.165Z,100457.47
2023-03-03T12:01:36.013Z,100449.31
2023-03-03T12:07:12.943Z,100440.63
2023-03-03T12:12:24.303Z,100444.59
2023-03-03T12:17:40.923Z,100444.81
2023-03-03T12:23:06.433Z,100446.59
2023-03-03T12:28:36.990Z,100441.16
2023-03-03T12:33:59.088Z,100436.16
2023-03-03T12:39:34.084Z,100430.03
2023-03-03T12:44:59.388Z,100418.44
2023-03-03T12:50:27.542Z,100416.19
2023-03-03T12:55:52.346Z,100416.63
2023-03-03T13:00:58.344Z,100399.59
2023-03-03T13:06:23.352Z,100413.25
2023-03-03T13:11:29.175Z,100412.09
2023-03-03T13:16:49.326Z,100401.28
2023-03-03T13:21:56.223Z,100413.63
2023-03-03T13:27:06.019Z,100411.91
2023-03-03T13:32:35.252Z,100410.25
2023-03-03T13:37:43.483Z,100397.72
2023-03-03T13:42:59.661Z,100397.41
2023-03-03T13:48:32.185Z,100396.06
2023-03-03T13:53:34.124Z,100398.25
2023-03-03T13:59:02.106Z,100401.06
2023-03-03T14:04:13.516Z,100385.44
2023-03-03T14:09:34.006Z,100378.94
2023-03-03T14:14:42.520Z,100375.50
2023-03-03T14:19:52.604Z,100372.59
2023-03-03T14:25:08.170Z,100374.41
2023-03-03T14:30:40.858Z,100363.22
2023-03-03T14:36:03.069Z,100354.75
2023-03-03T14:41:15.503Z,100353.38
2023-03-03T14:46:36.541Z,100346.78
2023-03-03T14:51:43.066Z,100346.47
2023-03-03T14:57:06.178Z,100349.34
2023-03-03T15:02:17.057Z,100345.53
2023-03-03T15:07:37.705Z,100344.75
2023-03-03T15:12:42.641Z,100344.53
2023-03-03T15:17:50.431Z,100343.56
2023-03-03T15:23:05.678Z,100350.50
2023-03-03T15:28:08.319Z,100351.44
2023-03-03T15:33:35.173Z,100348.91
2023-03-03T15:38:49.676Z,100335.03
2023-03-03T15:44:00.909Z,100344.03
2023-03-03T15:49:41.187Z,100350.69
2023-03-03T15:55:08.894Z,100344.66
2023-03-03T16:00:22.812Z,100345.31
2023-03-03T16:05:40.592Z,100356.91
2023-03-03T16:11:10.814Z,100355.50
2023-03-03T16:16:20.491Z,100350.78
2023-03-03T16:21:59.805Z,100348.00
2023-03-03T16:27:16.833Z,100351.19
2023-03-03T16:32:39.361Z,100350.91
2023-03-03T16:38:06.814Z,100358.13
2023-03-03T16:43:29.773Z,100361.16
2023-03-03T16:48:45.814Z,100345.44
2023-03-03T16:54:15.422Z,100350.25
2023-03-03T16:59:45.910Z,100348.94
2023-03-03T17:05:03.168Z,100351.66
2023-03-03T17:10:32.413Z,100357.81
2023-03-03T17:15:51.231Z,100355.25
2023-03-03T17:21:00.313Z,100359.22
2023-03-03T17:26:04.651Z,100358.66
2023-03-03T17:31:30.553Z,100356.03
2023-03-03T17:37:03.536Z,100356.56
2023-03-03T17:42:11.971Z,100360.56
2023-03-03T17:47:26.754Z,100368.13
2023-03-03T17:52:47.241Z,100369.34
2023-03-03T17:58:13.096Z,100367.47
2023-03-03T18:03:22.940Z,100363.59
2023-03-03T18:09:13.297Z,100372.84
2023-03-03T18:14:30.160Z,100369.25
2023-03-03T18:19:50.366Z,100375.75
2023-03-03T18:24:51.925Z,100364.41
2023-03-03T18:30:20.266Z,100365.19
2023-03-03T18:35:37.588Z,100362.94
2023-03-03T18:41:05.904Z,100358.94
2023-03-03T18:46:22.888Z,100373.13
2023-03-03T18:51:39.875Z,100376.41
2023-03-03T18:56:58.268Z,100376.16
2023-03-03T19:02:24.723Z,100374.53
2023-03-03T19:07:48.786Z,100361.31
2023-03-03T19:12:58.189Z,100367.28
2023-03-03T19:18:13.814Z,100367.28
2023-03-03T19:23:18.435Z,100368.88
2023-03-03T19:28:38.277Z,100373.13
2023-03-03T19:34:06.331Z,100366.13
2023-03-03T19:39:20.706Z,100365.66
2023-03-03T19:44:44.163Z,100363.66
2023-03-03T19:50:30.188Z,100370.88
2023-03-03T19:55:43.218Z,100366.53
2023-03-03T20:01:17.998Z,100361.16
2023-03-03T20:06:39.863Z,100360.56
2023-03-03T20:12:00.097Z,100358.97
2023-03-03T20:17:35.950Z,100360.19
2023-03-03T20:22:58.956Z,100364.63
2023-03-03T20:28:10.031Z,100352.59
2023-03-03T20:33:32.958Z,100357.16
2023-03-03T20:38:46.332Z,100350.16
2023-03-03T20:44:06.356Z,100344.31
2023-03-03T20:49:37.580Z,100336.66
2023-03-03T20:54:51.723Z,100340.44
2023-03-03T21:00:03.506Z,100338.91
2023-03-03T21:05:17.243Z,100340.69
2023-03-03T21:10:24.387Z,100324.81
2023-03-03T21:15:33.893Z,100322.84
2023-03-03T21:20:35.874Z,100309.44
2023-03-03T21:25:40.517Z,100314.91
2023-03-03T21:31:01.363Z,100300.63
2023-03-03T21:36:03.361Z,100309.59
2023-03-03T21:41:05.816Z,100299.78
2023-03-03T21:46:07.708Z,100302.47
2023-03-03T21:51:11.124Z,100301.34
2023-03-03T21:56:13.982Z,100302.06
2023-03-03T22:01:15.656Z,100303.22
2023-03-03T22:06:17.652Z,100294.41
2023-03-03T22:11:19.259Z,100298.66
2023-03-03T22:16:20.928Z,100297.22
2023-03-03T22:21:22.957Z,100289.78
2023-03-03T22:26:24.821Z,100302.56
2023-03-03T22:31:26.998Z,100285.44
2023-03-03T22:36:28.798Z,100279.41
2023-03-03T22:41:30.558Z,100276.25
2023-03-03T22:46:32.201Z,100269.81
2023-03-03T22:51:33.864Z,100265.75
2023-03-03T22:56:35.706Z,100266.19
2023-03-03T23:01:37.309Z,100258.69
2023-03-03T23:06:38.959Z,100257.72
2023-03-03T23:11:40.601Z,100258.72
2023-03-03T23:16:42.257Z,100251.38
2023-03-03T23:21:43.894Z,100245.03
2023-03-03T23:26:45.518Z,100241.72
2023-03-03T23:31:47.169Z,100231.47
2023-03-03T23:36:48.819Z,100225.28
2023-03-03T23:41:50.508Z,100227.31
2023-03-03T23:46:52.255Z,100221.44
2023-03-03T23:51:53.938Z,100232.19
2023-03-03T23:56:55.875Z,100225.44
